createdAt,value
2023-04-15T00:01:24.231Z,16.34
2023-04-15T00:04:38.644Z,16.37
2023-04-15T00:07:56.728Z,16.38
2023-04-15T00:11:23.061Z,16.42
2023-04-15T00:14:34.579Z,16.36
2023-04-15T00:18:01.037Z,16.32
2023-04-15T00:21:14.934Z,16.27
2023-04-15T00:24:19.558Z,16.27
2023-04-15T00:27:52.555Z,16.25
2023-04-15T00:31:07.135Z,16.16
2023-04-15T00:34:19.213Z,16.13
2023-04-15T00:37:45.944Z,16.13
2023-04-15T00:40:59.179Z,16.13
2023-04-15T00:44:15.900Z,16.15
2023-04-15T00:47:55.142Z,16.16
2023-04-15T00:51:33.757Z,16.18
2023-04-15T00:54:58.761Z,16.18
2023-04-15T00:58:38.839Z,16.13
2023-04-15T01:02:28.052Z,16.12
2023-04-15T01:06:04.579Z,16.11
2023-04-15T01:09:53.798Z,16.02
2023-04-15T01:13:24.783Z,16.01
2023-04-15T01:16:59.511Z,15.96
2023-04-15T01:20:27.895Z,15.95
2023-04-15T01:23:59.760Z,15.92
2023-04-15T01:27:26.347Z,15.84
2023-04-15T01:30:57.334Z,15.80
2023-04-15T01:34:24.083Z,15.74
2023-04-15T01:37:44.178Z,15.69
2023-04-15T01:41:01.781Z,15.75
2023-04-15T01:44:46.081Z,15.72
2023-04-15T01:48:27.346Z,15.70
2023-04-15T01:51:51.036Z,15.67
2023-04-15T01:55:20.209Z,15.71
2023-04-15T01:58:48.931Z,15.72
2023-04-15T02:02:19.798Z,15.64
2023-04-15T02:06:01.838Z,15.63
2023-04-15T02:09:38.854Z,15.65
2023-04-15T02:13:02.935Z,15.67
2023-04-15T02:16:41.180Z,15.65
2023-04-15T02:19:53.766Z,15.56
2023-04-15T02:23:12.520Z,15.62
2023-04-15T02:26:54.124Z,15.65
2023-04-15T02:30:19.363Z,15.66
2023-04-15T02:33:55.902Z,15.56
2023-04-15T02:37:27.459Z,15.55
2023-04-15T02:40:56.054Z,15.55
2023-04-15T02:44:27.601Z,15.61
2023-04-15T02:48:06.789Z,15.67
2023-04-15T02:51:50.681Z,15.70
2023-04-15T02:55:04.634Z,15.66
2023-04-15T02:58:53.703Z,15.69
2023-04-15T03:02:23.583Z,15.77
2023-04-15T03:06:18.214Z,15.65
2023-04-15T03:09:41.991Z,15.61
2023-04-15T03:13:04.224Z,15.64
2023-04-15T03:16:33.834Z,15.65
2023-04-15T03:19:59.895Z,15.70
2023-04-15T03:23:25.037Z,15.64
2023-04-15T03:26:56.123Z,15.64
2023-04-15T03:30:39.103Z,15.71
2023-04-15T03:34:11.426Z,15.69
2023-04-15T03:37:50.046Z,15.63
2023-04-15T03:41:12.695Z,15.69
2023-04-15T03:44:57.255Z,15.71
2023-04-15T03:48:28.936Z,15.70
2023-04-15T03:52:02.215Z,15.74
2023-04-15T03:55:41.965Z,15.81
2023-04-15T03:59:18.743Z,15.83
2023-04-15T04:02:57.176Z,15.89
2023-04-15T04:06:09.569Z,15.93
2023-04-15T04:09:25.969Z,15.93
2023-04-15T04:13:07.770Z,15.92
2023-04-15T04:16:47.390Z,15.92
2023-04-15T04:20:12.018Z,15.90
2023-04-15T04:23:50.741Z,15.97
2023-04-15T04:27:21.154Z,15.95
2023-04-15T04:30:54.363Z,15.99
2023-04-15T04:34:18.458Z,15.94
2023-04-15T04:37:47.748Z,15.90
2023-04-15T04:41:16.654Z,15.88
2023-04-15T04:45:05.746Z,15.82
2023-04-15T04:48:20.168Z,15.93
2023-04-15T04:52:01.045Z,15.96
2023-04-15T04:55:37.825Z,15.99
2023-04-15T04:58:43.372Z,15.98
2023-04-15T05:02:10.210Z,16.08
2023-04-15T05:05:42.331Z,16.12
2023-04-15T05:09:07.085Z,16.12
2023-04-15T05:12:40.699Z,16.16
2023-04-15T05:15:47.519Z,16.17
2023-04-15T05:18:38.038Z,16.12
2023-04-15T05:21:42.601Z,16.15
2023-04-15T05:24:36.571Z,16.20
2023-04-15T05:27:27.477Z,16.23
2023-04-15T05:30:39.275Z,16.30
2023-04-15T05:33:24.962Z,16.35
2023-04-15T05:36:20.058Z,16.41
2023-04-15T05:39:28.169Z,16.45
2023-04-15T05:42:12.524Z,16.48
2023-04-15T05:44:52.601Z,16.58
2023-04-15T05:47:38.753Z,16.64
2023-04-15T05:50:37.261Z,16.51
2023-04-15T05:53:47.712Z,16.53
2023-04-15T05:56:27.876Z,16.53
2023-04-15T05:59:33.214Z,16.49
2023-04-15T06:02:16.612Z,16.41
2023-04-15T06:05:01.373Z,16.32
2023-04-15T06:07:48.717Z,16.31
2023-04-15T06:10:39.011Z,16.23
2023-04-15T06:13:42.716Z,16.21
2023-04-15T06:16:30.876Z,16.19
2023-04-15T06:19:12.653Z,16.19
2023-04-15T06:21:49.327Z,16.13
2023-04-15T06:24:31.600Z,16.13
2023-04-15T06:27:25.077Z,16.15
2023-04-15T06:30:16.298Z,16.18
2023-04-15T06:33:05.599Z,16.22
2023-04-15T06:35:49.874Z,16.30
2023-04-15T06:38:43.887Z,16.34
2023-04-15T06:41:34.384Z,16.36
2023-04-15T06:44:20.271Z,16.41
2023-04-15T06:47:04.629Z,16.47
2023-04-15T06:49:47.540Z,16.55
2023-04-15T06:52:32.732Z,16.00
2023-04-15T06:55:34.061Z,14.99
2023-04-15T06:58:15.457Z,14.17
2023-04-15T07:01:07.658Z,13.86
2023-04-15T07:03:42.144Z,14.33
2023-04-15T07:06:44.159Z,14.82
2023-04-15T07:09:29.335Z,15.18
2023-04-15T07:12:26.906Z,15.46
2023-04-15T07:15:13.604Z,15.64
2023-04-15T07:18:09.847Z,15.86
2023-04-15T07:21:00.438Z,15.91
2023-04-15T07:23:40.607Z,15.28
2023-04-15T07:26:32.378Z,14.65
2023-04-15T07:29:11.963Z,14.17
2023-04-15T07:31:52.121Z,13.87
2023-04-15T07:35:00.437Z,13.92
2023-04-15T07:38:03.290Z,14.69
2023-04-15T07:41:15.908Z,15.41
2023-04-15T07:44:28.941Z,15.90
2023-04-15T07:47:34.323Z,15.70
2023-04-15T07:50:39.119Z,15.09
2023-04-15T07:53:33.710Z,14.65
2023-04-15T07:56:40.277Z,14.41
2023-04-15T07:59:36.921Z,14.25
2023-04-15T08:02:50.619Z,14.12
2023-04-15T08:06:05.320Z,14.02
2023-04-15T08:09:13.738Z,13.87
2023-04-15T08:12:16.107Z,13.80
2023-04-15T08:15:18.492Z,13.72
2023-04-15T08:18:15.939Z,13.63
2023-04-15T08:21:14.117Z,13.61
2023-04-15T08:24:31.653Z,13.59
2023-04-15T08:27:14.357Z,13.67
2023-04-15T08:30:22.361Z,13.73
2023-04-15T08:33:10.811Z,13.84
2023-04-15T08:36:11.145Z,13.93
2023-04-15T08:39:02.545Z,13.96
2023-04-15T08:42:23.386Z,13.91
2023-04-15T08:45:12.321Z,13.81
2023-04-15T08:48:19.101Z,13.83
2023-04-15T08:51:18.812Z,13.90
2023-04-15T08:54:20.156Z,14.01
2023-04-15T08:57:04.218Z,14.12
2023-04-15T08:59:46.820Z,14.28
2023-04-15T09:02:30.152Z,14.44
2023-04-15T09:05:21.767Z,14.51
2023-04-15T09:08:19.903Z,14.55
2023-04-15T09:11:11.560Z,14.56
2023-04-15T09:14:00.753Z,14.58
2023-04-15T09:17:03.403Z,14.62
2023-04-15T09:19:48.368Z,14.64
2023-04-15T09:22:40.501Z,14.56
2023-04-15T09:26:05.910Z,14.49
2023-04-15T09:28:48.216Z,14.41
2023-04-15T09:31:41.170Z,14.33
2023-04-15T09:34:56.656Z,14.36
2023-04-15T09:37:50.424Z,14.52
2023-04-15T09:41:07.552Z,14.65
2023-04-15T09:44:08.072Z,14.70
2023-04-15T09:47:04.916Z,14.62
2023-04-15T09:49:59.217Z,14.54
2023-04-15T09:52:53.280Z,14.57
2023-04-15T09:55:47.664Z,14.62
2023-04-15T09:59:03.173Z,14.67
2023-04-15T10:02:05.649Z,14.69
2023-04-15T10:04:48.750Z,14.64
2023-04-15T10:07:41.495Z,14.58
2023-04-15T10:10:33.323Z,14.51
2023-04-15T10:13:36.413Z,14.49
2023-04-15T10:16:30.698Z,14.46
2023-04-15T10:19:24.736Z,14.42
2023-04-15T10:22:14.358Z,14.39
2023-04-15T10:25:16.729Z,14.37
2023-04-15T10:28:11.417Z,14.35
2023-04-15T10:31:15.259Z,14.35
2023-04-15T10:34:06.775Z,14.40
2023-04-15T10:36:54.789Z,14.49
2023-04-15T10:39:44.762Z,14.66
2023-04-15T10:42:37.255Z,14.92
2023-04-15T10:45:37.740Z,15.23
2023-04-15T10:48:12.079Z,15.51
2023-04-15T10:50:57.021Z,15.89
2023-04-15T10:53:34.205Z,16.41
2023-04-15T10:56:06.068Z,16.98
2023-04-15T10:58:46.930Z,17.52
2023-04-15T11:01:18.481Z,17.96
2023-04-15T11:03:50.183Z,18.14
2023-04-15T11:06:45.739Z,18.06
2023-04-15T11:09:35.013Z,18.01
2023-04-15T11:12:12.301Z,18.24
2023-04-15T11:14:43.574Z,18.42
2023-04-15T11:17:14.685Z,18.48
2023-04-15T11:19:44.602Z,18.62
2023-04-15T11:22:16.153Z,18.64
2023-04-15T11:24:53.438Z,18.58
2023-04-15T11:27:32.873Z,18.50
2023-04-15T11:30:19.475Z,18.41
2023-04-15T11:32:49.149Z,18.43
2023-04-15T11:35:22.885Z,18.53
2023-04-15T11:37:51.977Z,18.70
2023-04-15T11:40:28.921Z,18.85
2023-04-15T11:43:18.856Z,18.89
2023-04-15T11:46:00.396Z,18.63
2023-04-15T11:48:33.004Z,18.29
2023-04-15T11:51:09.676Z,18.19
2023-04-15T11:53:41.174Z,18.10
2023-04-15T11:56:18.931Z,17.92
2023-04-15T11:58:58.579Z,17.69
2023-04-15T12:01:39.979Z,17.51
2023-04-15T12:04:25.172Z,17.37
2023-04-15T12:07:07.628Z,17.23
2023-04-15T12:09:40.246Z,17.05
2023-04-15T12:12:14.410Z,16.89
2023-04-15T12:14:55.280Z,16.82
2023-04-15T12:17:31.901Z,16.85
2023-04-15T12:20:26.889Z,16.85
2023-04-15T12:23:10.688Z,16.85
2023-04-15T12:25:52.899Z,16.90
2023-04-15T12:28:31.198Z,16.87
2023-04-15T12:31:10.292Z,16.86
2023-04-15T12:33:44.736Z,16.83
2023-04-15T12:36:19.171Z,16.76
2023-04-15T12:39:00.757Z,16.69
2023-04-15T12:41:38.452Z,16.60
2023-04-15T12:44:09.697Z,16.52
2023-04-15T12:46:43.662Z,16.50
2023-04-15T12:49:21.096Z,16.47
2023-04-15T12:51:55.979Z,16.39
2023-04-15T12:54:30.696Z,16.31
2023-04-15T12:57:14.078Z,16.27
2023-04-15T12:59:48.398Z,16.20
2023-04-15T13:02:30.810Z,16.11
2023-04-15T13:05:24.782Z,16.06
2023-04-15T13:08:13.225Z,15.98
2023-04-15T13:10:49.382Z,15.87
2023-04-15T13:13:28.409Z,15.77
2023-04-15T13:16:04.826Z,15.71
2023-04-15T13:18:42.466Z,15.66
2023-04-15T13:21:16.073Z,15.62
2023-04-15T13:23:53.461Z,15.59
2023-04-15T13:26:33.209Z,15.55
2023-04-15T13:29:12.537Z,15.50
2023-04-15T13:31:50.704Z,15.49
2023-04-15T13:34:27.721Z,15.49
2023-04-15T13:37:11.252Z,15.49
2023-04-15T13:39:55.125Z,15.43
2023-04-15T13:42:33.912Z,15.39
2023-04-15T13:45:10.789Z,15.34
2023-04-15T13:47:42.565Z,15.31
2023-04-15T13:50:17.352Z,15.32
2023-04-15T13:53:05.924Z,15.34
2023-04-15T13:55:42.806Z,15.31
2023-04-15T13:58:30.429Z,15.31
2023-04-15T14:01:05.749Z,15.31
2023-04-15T14:03:40.584Z,15.34
2023-04-15T14:06:22.711Z,15.40
2023-04-15T14:08:59.366Z,15.47
2023-04-15T14:11:42.185Z,15.55
2023-04-15T14:14:27.862Z,15.54
2023-04-15T14:17:14.468Z,15.53
2023-04-15T14:19:53.498Z,15.57
2023-04-15T14:22:32.210Z,15.61
2023-04-15T14:25:06.672Z,15.71
2023-04-15T14:27:44.017Z,15.88
2023-04-15T14:30:15.792Z,16.05
2023-04-15T14:32:56.069Z,16.26
2023-04-15T14:35:27.589Z,16.49
2023-04-15T14:38:06.402Z,16.63
2023-04-15T14:40:37.439Z,16.70
2023-04-15T14:43:11.256Z,16.76
2023-04-15T14:45:44.571Z,16.78
2023-04-15T14:48:22.335Z,16.82
2023-04-15T14:50:51.126Z,16.92
2023-04-15T14:53:25.443Z,17.06
2023-04-15T14:56:02.727Z,17.26
2023-04-15T14:58:33.989Z,17.53
2023-04-15T15:01:04.308Z,17.75
2023-04-15T15:03:33.075Z,17.91
2023-04-15T15:06:04.843Z,18.08
2023-04-15T15:08:38.641Z,18.24
2023-04-15T15:11:09.684Z,18.29
2023-04-15T15:13:38.680Z,18.26
2023-04-15T15:16:10.635Z,18.18
2023-04-15T15:18:40.251Z,18.05
2023-04-15T15:21:08.721Z,17.87
2023-04-15T15:23:37.106Z,17.70
2023-04-15T15:26:05.783Z,17.58
2023-04-15T15:28:35.247Z,17.48
2023-04-15T15:31:04.839Z,17.46
2023-04-15T15:33:33.581Z,17.51
2023-04-15T15:36:02.415Z,17.60
2023-04-15T15:38:30.750Z,17.71
2023-04-15T15:41:02.300Z,17.78
2023-04-15T15:43:30.563Z,17.74
2023-04-15T15:45:59.047Z,17.65
2023-04-15T15:48:27.420Z,17.55
2023-04-15T15:50:55.892Z,17.44
2023-04-15T15:53:26.014Z,17.29
2023-04-15T15:55:54.296Z,17.18
2023-04-15T15:58:22.876Z,17.15
2023-04-15T16:00:51.324Z,17.11
2023-04-15T16:03:20.183Z,17.05
2023-04-15T16:05:49.238Z,16.93
2023-04-15T16:08:18.020Z,16.79
2023-04-15T16:10:46.601Z,16.67
2023-04-15T16:13:15.658Z,16.54
2023-04-15T16:15:50.058Z,16.44
2023-04-15T16:18:18.604Z,16.35
2023-04-15T16:20:54.445Z,16.26
2023-04-15T16:23:23.948Z,16.17
2023-04-15T16:25:54.784Z,16.07
2023-04-15T16:28:26.758Z,16.01
2023-04-15T16:31:01.098Z,15.95
2023-04-15T16:33:32.207Z,15.87
2023-04-15T16:36:04.491Z,15.77
2023-04-15T16:38:35.807Z,15.67
2023-04-15T16:41:04.614Z,15.61
2023-04-15T16:43:35.950Z,15.59
2023-04-15T16:46:08.017Z,15.56
2023-04-15T16:48:39.873Z,15.52
2023-04-15T16:51:11.017Z,15.46
2023-04-15T16:53:48.667Z,15.37
2023-04-15T16:56:17.373Z,15.26
2023-04-15T16:58:48.333Z,15.10
2023-04-15T17:01:20.352Z,14.93
2023-04-15T17:03:53.443Z,14.71
2023-04-15T17:06:26.879Z,14.50
2023-04-15T17:08:55.969Z,14.29
2023-04-15T17:11:33.050Z,14.11
2023-04-15T17:14:06.342Z,13.92
2023-04-15T17:16:47.724Z,13.73
2023-04-15T17:19:27.057Z,13.70
2023-04-15T17:22:02.401Z,14.30
2023-04-15T17:24:42.348Z,14.92
2023-04-15T17:27:14.158Z,15.38
2023-04-15T17:29:51.287Z,15.73
2023-04-15T17:32:40.229Z,15.87
2023-04-15T17:35:51.835Z,15.31
2023-04-15T17:38:51.796Z,14.69
2023-04-15T17:41:32.011Z,14.20
2023-04-15T17:44:25.193Z,13.85
2023-04-15T17:47:19.656Z,13.74
2023-04-15T17:50:27.455Z,14.34
2023-04-15T17:53:19.177Z,14.93
2023-04-15T17:56:20.945Z,15.28
2023-04-15T17:59:15.447Z,15.58
2023-04-15T18:02:21.142Z,15.61
2023-04-15T18:05:16.340Z,14.87
2023-04-15T18:08:16.608Z,14.27
2023-04-15T18:11:13.045Z,13.78
2023-04-15T18:14:02.754Z,13.39
2023-04-15T18:16:40.901Z,13.29
2023-04-15T18:19:53.752Z,13.89
2023-04-15T18:22:31.638Z,14.49
2023-04-15T18:25:46.207Z,14.92
2023-04-15T18:28:27.421Z,15.20
2023-04-15T18:31:30.072Z,15.43
2023-04-15T18:34:23.222Z,15.69
2023-04-15T18:37:22.223Z,15.69
2023-04-15T18:40:16.219Z,15.00
2023-04-15T18:43:25.019Z,14.39
2023-04-15T18:46:37.001Z,13.81
2023-04-15T18:49:45.740Z,13.66
2023-04-15T18:52:44.552Z,14.34
2023-04-15T18:55:35.951Z,14.87
2023-04-15T18:59:08.864Z,15.22
2023-04-15T19:02:20.830Z,15.51
2023-04-15T19:05:36.624Z,15.71
2023-04-15T19:08:26.712Z,15.85
2023-04-15T19:11:42.130Z,15.99
2023-04-15T19:14:41.084Z,15.89
2023-04-15T19:17:39.789Z,15.08
2023-04-15T19:20:58.730Z,14.36
2023-04-15T19:23:57.419Z,13.81
2023-04-15T19:26:53.342Z,13.62
2023-04-15T19:29:52.545Z,14.15
2023-04-15T19:33:08.021Z,14.58
2023-04-15T19:36:31.910Z,14.91
2023-04-15T19:39:29.775Z,15.19
2023-04-15T19:42:35.317Z,15.43
2023-04-15T19:45:56.957Z,15.64
2023-04-15T19:49:02.201Z,15.83
2023-04-15T19:51:45.317Z,15.97
2023-04-15T19:54:40.922Z,16.10
2023-04-15T19:57:44.214Z,15.97
2023-04-15T20:00:43.522Z,15.12
2023-04-15T20:04:04.627Z,14.34
2023-04-15T20:07:07.827Z,13.59
2023-04-15T20:10:16.556Z,13.35
2023-04-15T20:13:27.932Z,13.93
2023-04-15T20:16:38.601Z,14.42
2023-04-15T20:19:41.812Z,14.72
2023-04-15T20:22:47.552Z,14.95
2023-04-15T20:25:59.653Z,15.14
2023-04-15T20:29:17.557Z,15.30
2023-04-15T20:32:28.560Z,15.41
2023-04-15T20:35:28.474Z,15.52
2023-04-15T20:38:50.506Z,15.60
2023-04-15T20:42:10.406Z,15.65
2023-04-15T20:45:14.712Z,15.41
2023-04-15T20:48:24.664Z,14.41
2023-04-15T20:51:45.848Z,13.55
2023-04-15T20:55:09.250Z,12.76
2023-04-15T20:58:21.997Z,12.46
2023-04-15T21:01:25.091Z,12.99
2023-04-15T21:04:39.410Z,13.38
2023-04-15T21:07:54.156Z,13.52
2023-04-15T21:10:54.197Z,13.74
2023-04-15T21:14:27.673Z,13.89
2023-04-15T21:17:45.770Z,13.99
2023-04-15T21:21:09.127Z,14.04
2023-04-15T21:24:26.835Z,14.08
2023-04-15T21:27:54.857Z,14.09
2023-04-15T21:31:07.627Z,14.12
2023-04-15T21:34:56.809Z,13.83
2023-04-15T21:38:23.235Z,12.74
2023-04-15T21:41:54.251Z,11.77
2023-04-15T21:45:34.674Z,11.42
2023-04-15T21:49:12.521Z,11.99
2023-04-15T21:53:00.391Z,12.37
2023-04-15T21:56:49.473Z,12.60
2023-04-15T22:00:38.716Z,12.76
2023-04-15T22:04:31.993Z,12.86
2023-04-15T22:08:19.537Z,12.93
2023-04-15T22:12:08.393Z,13.00
2023-04-15T22:15:50.073Z,13.03
2023-04-15T22:19:38.112Z,13.07
2023-04-15T22:23:20.149Z,13.09
2023-04-15T22:26:59.274Z,13.10
2023-04-15T22:30:35.236Z,13.11
2023-04-15T22:34:04.171Z,12.65
2023-04-15T22:37:38.069Z,11.65
2023-04-15T22:41:03.970Z,10.70
2023-04-15T22:44:42.787Z,10.33
2023-04-15T22:48:21.824Z,10.88
2023-04-15T22:51:59.795Z,11.28
2023-04-15T22:55:49.217Z,11.53
2023-04-15T22:59:32.333Z,11.73
2023-04-15T23:03:12.633Z,11.90
2023-04-15T23:07:00.332Z,11.98
2023-04-15T23:10:48.375Z,12.03
2023-04-15T23:14:30.381Z,12.11
2023-04-15T23:18:19.485Z,12.18
2023-04-15T23:21:49.203Z,12.29
2023-04-15T23:25:18.575Z,12.38
2023-04-15T23:29:07.901Z,12.43
2023-04-15T23:32:57.465Z,11.98
2023-04-15T23:36:46.797Z,10.78
2023-04-15T23:40:35.966Z,9.88
2023-04-15T23:44:19.259Z,9.66
2023-04-15T23:47:59.937Z,10.30
2023-04-15T23:51:49.242Z,10.64
2023-04-15T23:55:38.395Z,10.86
2023-04-15T23:59:26.558Z,11.00
